Terminal Aerodrome Forecast
Issued by NWS Sioux Falls, SD

Home | Current Version | Previous Version | Graphics & Text | Print | Product List | Glossary On
Versions: 1 2 3 4 5 6 7 8 9 10 11 12 13
341
FTUS43 KFSD 010328 RRA
TAFFSD
TAF
KFSD 010328Z 0103/0124 07015KT P6SM -RA OVC035
     FM010600 04012KT P6SM -RA OVC025
     FM010900 03011KT P6SM BKN040
     FM011400 03013G20KT P6SM SCT040=

USA.gov is the U.S. government's official web portal to all federal, state and local government web resources and services.